createdAt,value
2024-05-09T00:03:48.808Z,15
2024-05-09T00:32:24.524Z,15
2024-05-09T01:00:50.276Z,21
2024-05-09T01:29:19.791Z,20
2024-05-09T01:57:59.205Z,21
2024-05-09T02:26:41.451Z,21
2024-05-09T02:55:22.779Z,21
2024-05-09T03:52:44.337Z,21
2024-05-09T04:21:28.904Z,21
2024-05-09T04:45:49.233Z,19
2024-05-09T05:14:41.100Z,21
2024-05-09T05:43:15.848Z,23
2024-05-09T06:11:57.422Z,24
2024-05-09T06:40:40.392Z,23
2024-05-09T07:09:38.882Z,15
2024-05-09T07:38:26.638Z,21
2024-05-09T08:06:52.721Z,22
2024-05-09T08:35:32.417Z,20
2024-05-09T09:04:12.085Z,15
2024-05-09T09:32:47.812Z,15
2024-05-09T10:01:34.897Z,14
2024-05-09T10:30:11.437Z,14
2024-05-09T10:58:31.482Z,10
2024-05-09T11:27:06.195Z,10
2024-05-09T11:55:42.033Z,8
2024-05-09T12:24:19.621Z,8
2024-05-09T12:53:05.723Z,8
2024-05-09T13:21:39.375Z,8
2024-05-09T13:50:14.289Z,8
2024-05-09T14:18:39.900Z,7
2024-05-09T14:47:17.249Z,7
2024-05-09T15:15:56.026Z,7
2024-05-09T15:44:30.806Z,8
2024-05-09T16:12:57.291Z,7
2024-05-09T16:41:31.183Z,7
2024-05-09T17:10:10.432Z,9
2024-05-09T17:38:32.697Z,15
2024-05-09T18:07:04.746Z,12
2024-05-09T18:35:31.674Z,8
2024-05-09T19:04:09.999Z,14
2024-05-09T19:32:32.981Z,10
2024-05-09T20:01:03.930Z,8
2024-05-09T20:29:25.383Z,8
2024-05-09T20:57:56.634Z,11
2024-05-09T21:26:25.950Z,10
2024-05-09T21:55:04.601Z,8
2024-05-09T22:23:43.608Z,13
2024-05-09T22:52:18.709Z,24
2024-05-09T23:20:43.065Z,12
2024-05-09T23:49:21.958Z,15
